createdAt,value
2022-12-31T03:45:59.891Z,99895.03
2022-12-31T03:48:28.336Z,99888.03
2022-12-31T03:50:56.398Z,99885.41
2022-12-31T03:53:24.612Z,99884.03
2022-12-31T03:55:53.618Z,99880.78
2022-12-31T03:58:22.727Z,99874.13
2022-12-31T04:00:51.036Z,99875.38
2022-12-31T04:03:20.567Z,99874.19
2022-12-31T04:05:53.990Z,99853.09
2022-12-31T04:08:22.063Z,99853.50
2022-12-31T04:10:50.103Z,99861.38
2022-12-31T04:13:18.104Z,99870.03
2022-12-31T04:15:46.088Z,99869.88
2022-12-31T04:18:14.117Z,99869.56
2022-12-31T04:20:43.476Z,99871.63
2022-12-31T04:23:11.494Z,99866.41
2022-12-31T04:25:39.504Z,99874.19
2022-12-31T04:28:07.570Z,99866.84
2022-12-31T04:30:35.555Z,99858.34
2022-12-31T04:33:03.538Z,99851.50
2022-12-31T04:35:31.537Z,99860.81
2022-12-31T04:38:00.987Z,99867.00
2022-12-31T04:40:29.204Z,99867.78
2022-12-31T04:42:57.232Z,99879.94
2022-12-31T04:45:25.186Z,99878.00
2022-12-31T04:47:53.205Z,99870.16
2022-12-31T04:50:21.147Z,99856.72
2022-12-31T04:52:49.135Z,99850.84
2022-12-31T04:55:18.697Z,99854.19
2022-12-31T04:57:46.653Z,99856.19
2022-12-31T05:00:15.271Z,99843.69
2022-12-31T05:02:43.515Z,99853.84
2022-12-31T05:05:11.579Z,99856.34
2022-12-31T05:07:39.536Z,99846.19
2022-12-31T05:10:08.514Z,99820.47
2022-12-31T05:12:37.902Z,99857.28
2022-12-31T05:15:06.964Z,99844.19
2022-12-31T05:17:35.209Z,99844.19
2022-12-31T05:20:03.272Z,99844.28
2022-12-31T05:22:31.258Z,99851.78
2022-12-31T05:25:00.214Z,99844.34
2022-12-31T05:27:31.099Z,99851.28
2022-12-31T05:30:00.995Z,99848.19
2022-12-31T05:32:29.055Z,99841.16
2022-12-31T05:34:57.538Z,99848.25
2022-12-31T05:37:25.517Z,99853.91
2022-12-31T05:39:53.527Z,99852.19
2022-12-31T05:42:24.740Z,99849.09
2022-12-31T05:44:52.769Z,99855.78
2022-12-31T05:47:22.289Z,99858.34
2022-12-31T05:49:50.386Z,99855.38
2022-12-31T05:52:18.407Z,99854.69
2022-12-31T05:54:46.407Z,99855.25
2022-12-31T05:57:14.905Z,99861.13
2022-12-31T05:59:42.907Z,99866.94
2022-12-31T06:02:10.868Z,99874.28
2022-12-31T06:04:40.214Z,99888.19
2022-12-31T06:07:08.655Z,99862.19
2022-12-31T06:09:36.694Z,99868.88
2022-12-31T06:12:05.253Z,99873.72
2022-12-31T06:14:33.324Z,99869.91
2022-12-31T06:17:01.410Z,99842.31
2022-12-31T06:19:29.551Z,99874.34
2022-12-31T06:21:58.965Z,99871.06
2022-12-31T06:24:26.968Z,99884.59
2022-12-31T06:26:54.987Z,99888.94
2022-12-31T06:29:22.989Z,99890.00
2022-12-31T06:31:51.109Z,99893.63
2022-12-31T06:34:19.245Z,99895.50
2022-12-31T06:36:47.199Z,99910.25
2022-12-31T06:39:16.537Z,99904.31
2022-12-31T06:41:44.612Z,99911.63
2022-12-31T06:44:12.578Z,99917.81
2022-12-31T06:46:40.682Z,99926.94
2022-12-31T06:49:08.899Z,99924.66
2022-12-31T06:51:36.900Z,99899.00
2022-12-31T06:54:05.102Z,99901.38
2022-12-31T06:56:35.300Z,99886.03
2022-12-31T06:59:05.155Z,99904.38
2022-12-31T07:01:51.468Z,99904.81
2022-12-31T07:04:47.848Z,99910.13
2022-12-31T07:07:21.448Z,99914.81
2022-12-31T07:09:58.561Z,99913.38
2022-12-31T07:12:42.921Z,99919.47
2022-12-31T07:15:15.868Z,99934.84
2022-12-31T07:17:53.076Z,99919.41
2022-12-31T07:20:22.243Z,99895.41
2022-12-31T07:22:51.030Z,99921.94
2022-12-31T07:25:22.076Z,99928.13
2022-12-31T07:28:05.724Z,99918.66
2022-12-31T07:30:41.110Z,99941.31
2022-12-31T07:33:47.889Z,99930.16
2022-12-31T07:36:29.005Z,99934.09
2022-12-31T07:39:05.237Z,99938.53
2022-12-31T07:41:48.213Z,99922.97
2022-12-31T07:44:35.432Z,99928.63
2022-12-31T07:47:06.261Z,99931.72
2022-12-31T07:49:35.958Z,99925.84
2022-12-31T07:52:04.468Z,99934.09
2022-12-31T07:54:32.690Z,99933.16
2022-12-31T07:57:00.971Z,99938.66
2022-12-31T07:59:43.770Z,99921.03
2022-12-31T08:02:21.284Z,99911.84
2022-12-31T08:04:57.891Z,99917.88
2022-12-31T08:07:37.378Z,99915.06
2022-12-31T08:10:17.729Z,99914.84
2022-12-31T08:12:50.267Z,99906.19
2022-12-31T08:15:25.441Z,99916.84
2022-12-31T08:17:57.232Z,99926.38
2022-12-31T08:20:26.951Z,99925.53
2022-12-31T08:23:19.643Z,99928.66
2022-12-31T08:26:28.627Z,99931.84
2022-12-31T08:29:12.495Z,99919.41
2022-12-31T08:31:53.826Z,99938.94
2022-12-31T08:34:37.838Z,99938.22
2022-12-31T08:37:12.547Z,99945.00
2022-12-31T08:39:57.388Z,99949.50
2022-12-31T08:42:34.000Z,99937.69
2022-12-31T08:45:12.138Z,99954.44
2022-12-31T08:47:52.759Z,99959.19
2022-12-31T08:50:25.519Z,99953.66
2022-12-31T08:52:54.217Z,99942.44
2022-12-31T08:55:23.013Z,99957.88
2022-12-31T08:58:05.871Z,99961.06
2022-12-31T09:00:36.237Z,99924.19
2022-12-31T09:03:22.174Z,99975.16
2022-12-31T09:06:02.510Z,99975.47
2022-12-31T09:08:39.751Z,99954.34
2022-12-31T09:11:20.813Z,99967.25
2022-12-31T09:14:06.290Z,99962.06
2022-12-31T09:16:41.871Z,99969.59
2022-12-31T09:19:11.672Z,99968.44
2022-12-31T09:21:44.355Z,99961.03
2022-12-31T09:24:14.708Z,99947.63
2022-12-31T09:26:56.514Z,99937.91
2022-12-31T09:29:43.701Z,99944.44
2022-12-31T09:32:20.871Z,99945.72
2022-12-31T09:34:56.259Z,99934.13
2022-12-31T09:37:37.308Z,99954.75
2022-12-31T09:40:30.164Z,99929.81
2022-12-31T09:43:22.375Z,99956.31
2022-12-31T09:46:20.688Z,99997.75
2022-12-31T09:49:07.567Z,99968.78
2022-12-31T09:51:44.469Z,99984.00
2022-12-31T09:54:35.916Z,99971.09
2022-12-31T09:57:20.499Z,99969.09
2022-12-31T09:59:57.374Z,99980.16
2022-12-31T10:02:45.298Z,99960.72
2022-12-31T10:05:45.033Z,99970.44
2022-12-31T10:08:31.275Z,99974.75
2022-12-31T10:11:04.302Z,99979.44
2022-12-31T10:13:47.374Z,99957.28
2022-12-31T10:16:25.979Z,99980.34
2022-12-31T10:19:38.857Z,99994.06
2022-12-31T10:22:20.710Z,99988.88
2022-12-31T10:25:07.459Z,99996.75
2022-12-31T10:27:50.918Z,99996.75
2022-12-31T10:30:21.329Z,99983.16
2022-12-31T10:33:07.892Z,99983.13
2022-12-31T10:35:43.904Z,99998.47
2022-12-31T10:38:23.446Z,99990.94
2022-12-31T10:41:21.940Z,99981.31
2022-12-31T10:44:15.868Z,99964.97
2022-12-31T10:47:29.500Z,99972.31
2022-12-31T10:50:30.275Z,99977.16
2022-12-31T10:53:43.316Z,99986.34
2022-12-31T10:57:01.195Z,99983.09
2022-12-31T11:00:07.714Z,99993.44
2022-12-31T11:03:14.673Z,99999.00
2022-12-31T11:06:18.519Z,99976.28
2022-12-31T11:09:02.316Z,99959.56
2022-12-31T11:11:38.602Z,99973.09
2022-12-31T11:14:39.969Z,99966.84
2022-12-31T11:17:26.877Z,99968.69
2022-12-31T11:20:08.450Z,99971.50
2022-12-31T11:22:52.047Z,99968.41
2022-12-31T11:25:30.253Z,99961.69
2022-12-31T11:28:13.081Z,99969.59
2022-12-31T11:30:52.973Z,99964.44
2022-12-31T11:33:36.414Z,99968.84
2022-12-31T11:36:18.501Z,99969.59
2022-12-31T11:38:53.359Z,99977.22
2022-12-31T11:41:32.282Z,99957.81
2022-12-31T11:44:13.767Z,99966.97
2022-12-31T11:46:55.711Z,99962.16
2022-12-31T11:49:42.423Z,99959.94
2022-12-31T11:52:38.689Z,99942.47
2022-12-31T11:55:28.634Z,99948.22
2022-12-31T11:58:04.184Z,99946.19
2022-12-31T12:00:33.991Z,99947.09
2022-12-31T12:03:04.755Z,99939.78
2022-12-31T12:05:36.657Z,99944.97
2022-12-31T12:08:06.943Z,99952.22
2022-12-31T12:10:39.755Z,99942.78
2022-12-31T12:13:14.847Z,99948.53
2022-12-31T12:15:46.906Z,99950.31
2022-12-31T12:18:26.425Z,99957.41
2022-12-31T12:21:01.814Z,99958.63
2022-12-31T12:23:33.077Z,99957.56
2022-12-31T12:26:01.217Z,99943.44
2022-12-31T12:28:31.473Z,99950.31
2022-12-31T12:31:02.456Z,99942.25
2022-12-31T12:33:41.539Z,99937.88
2022-12-31T12:36:11.303Z,99938.66
2022-12-31T12:38:41.268Z,99929.56
2022-12-31T12:41:13.596Z,99945.72
2022-12-31T12:43:41.715Z,99942.72
2022-12-31T12:46:21.732Z,99948.97
2022-12-31T12:48:55.604Z,99955.81
2022-12-31T12:51:41.208Z,99949.59
2022-12-31T12:54:19.128Z,99945.84
2022-12-31T12:56:55.046Z,99941.41
2022-12-31T12:59:49.300Z,99940.69
2022-12-31T13:02:31.131Z,99956.13
2022-12-31T13:05:12.079Z,99951.44
2022-12-31T13:07:52.541Z,99926.72
2022-12-31T13:10:41.944Z,99967.09
2022-12-31T13:13:24.907Z,99968.19
2022-12-31T13:15:59.797Z,99977.00
2022-12-31T13:18:41.227Z,99964.28
2022-12-31T13:21:34.415Z,99965.22
2022-12-31T13:24:12.857Z,99943.47
2022-12-31T13:26:47.664Z,99952.88
2022-12-31T13:29:20.889Z,99953.63
2022-12-31T13:31:51.625Z,99942.09
2022-12-31T13:34:25.504Z,99960.94
2022-12-31T13:36:56.343Z,99957.03
2022-12-31T13:39:28.461Z,99962.34
2022-12-31T13:42:02.986Z,99961.16
2022-12-31T13:44:36.063Z,99957.03
2022-12-31T13:47:12.889Z,99966.41
2022-12-31T13:49:47.541Z,99954.25
2022-12-31T13:52:28.520Z,99945.81
2022-12-31T13:55:04.969Z,99949.53
2022-12-31T13:57:43.425Z,99956.75
2022-12-31T14:00:20.837Z,99957.06
2022-12-31T14:02:57.980Z,99963.28
2022-12-31T14:05:32.307Z,99964.56
2022-12-31T14:08:03.318Z,99975.72
2022-12-31T14:10:42.820Z,99978.41
2022-12-31T14:13:41.405Z,99966.16
2022-12-31T14:16:20.081Z,99963.66
2022-12-31T14:18:57.991Z,99976.72
2022-12-31T14:21:33.490Z,99980.53
2022-12-31T14:24:10.855Z,99973.84
2022-12-31T14:26:43.650Z,99973.41
2022-12-31T14:29:29.803Z,99986.03
2022-12-31T14:32:16.364Z,99984.00
2022-12-31T14:34:57.447Z,99974.97
2022-12-31T14:37:35.116Z,99978.69
2022-12-31T14:40:14.405Z,99978.50
2022-12-31T14:42:54.302Z,99992.16
2022-12-31T14:45:40.449Z,99976.94
2022-12-31T14:48:23.910Z,99978.78
2022-12-31T14:50:54.846Z,99973.69
2022-12-31T14:53:25.889Z,99982.69
2022-12-31T14:56:02.854Z,99978.25
2022-12-31T14:58:34.400Z,99974.81
2022-12-31T15:01:08.839Z,99982.88
2022-12-31T15:03:45.434Z,99973.31
2022-12-31T15:06:42.646Z,99969.56
2022-12-31T15:09:20.951Z,99968.91
2022-12-31T15:12:08.009Z,99978.03
2022-12-31T15:15:00.113Z,99983.94
2022-12-31T15:17:41.901Z,99988.50
2022-12-31T15:20:36.216Z,99995.34
2022-12-31T15:23:04.652Z,100003.16
2022-12-31T15:25:40.728Z,100001.19
2022-12-31T15:28:29.270Z,99994.06
2022-12-31T15:31:03.170Z,100006.72
2022-12-31T15:33:37.711Z,99994.19
2022-12-31T15:36:20.339Z,99984.81
2022-12-31T15:38:49.667Z,99994.41
2022-12-31T15:41:27.862Z,99987.09
2022-12-31T15:44:01.631Z,99969.66
2022-12-31T15:46:33.488Z,100003.66
2022-12-31T15:49:10.242Z,100006.84
2022-12-31T15:51:48.318Z,100003.75
2022-12-31T15:54:25.423Z,100015.84
2022-12-31T15:56:55.305Z,100022.13
2022-12-31T15:59:26.183Z,100019.84
2022-12-31T16:01:57.561Z,100027.44
2022-12-31T16:04:29.050Z,100031.84
2022-12-31T16:07:01.489Z,100036.63
2022-12-31T16:09:34.170Z,100046.34
2022-12-31T16:12:04.970Z,100050.84
2022-12-31T16:14:37.967Z,100044.72
2022-12-31T16:17:07.478Z,100049.28
2022-12-31T16:19:43.358Z,100061.94
2022-12-31T16:22:16.764Z,100050.72
2022-12-31T16:25:19.547Z,100053.00
2022-12-31T16:27:36.655Z,100065.94
2022-12-31T16:30:08.553Z,100081.91
2022-12-31T16:32:39.686Z,100069.03
2022-12-31T16:38:05.314Z,100063.00
2022-12-31T16:40:33.508Z,100062.34
2022-12-31T16:43:01.995Z,100057.28
2022-12-31T16:45:35.076Z,100063.31
2022-12-31T16:48:16.364Z,100067.13
2022-12-31T16:50:46.431Z,100075.94
2022-12-31T16:53:19.256Z,100074.94
2022-12-31T16:55:54.511Z,100068.72
2022-12-31T16:58:28.177Z,100064.13
2022-12-31T17:01:01.314Z,100084.22
2022-12-31T17:03:30.349Z,100092.59
2022-12-31T17:06:04.003Z,100091.97
2022-12-31T17:08:43.104Z,100085.22
2022-12-31T17:11:25.521Z,100097.47
2022-12-31T17:13:56.484Z,100100.84
2022-12-31T17:16:25.678Z,100108.88
2022-12-31T17:18:53.841Z,100109.00
2022-12-31T17:21:26.390Z,100101.25
2022-12-31T17:24:02.129Z,100113.47
2022-12-31T17:26:33.269Z,100111.97
2022-12-31T17:29:03.962Z,100109.56
2022-12-31T17:31:35.225Z,100105.00
2022-12-31T17:34:21.464Z,100073.47
2022-12-31T17:37:00.254Z,100099.97
2022-12-31T17:39:44.463Z,100106.38
2022-12-31T17:42:13.737Z,100090.03
2022-12-31T17:44:44.725Z,100095.13
2022-12-31T17:47:15.087Z,100081.09
2022-12-31T17:49:46.546Z,100077.78
2022-12-31T17:52:16.888Z,100072.44
2022-12-31T17:54:46.371Z,100069.25
2022-12-31T17:57:27.055Z,100100.28
2022-12-31T17:59:55.276Z,100102.56
2022-12-31T18:02:23.738Z,100108.59
2022-12-31T18:04:53.364Z,100115.88
2022-12-31T18:07:24.759Z,100118.56
2022-12-31T18:09:54.167Z,100118.16
2022-12-31T18:12:22.617Z,100116.78
2022-12-31T18:14:50.781Z,100119.91
2022-12-31T18:17:18.770Z,100112.72
2022-12-31T18:20:04.135Z,100116.81
2022-12-31T18:22:33.384Z,100111.22
2022-12-31T18:25:07.437Z,100114.94
2022-12-31T18:27:35.713Z,100108.31
2022-12-31T18:30:08.592Z,100108.91
2022-12-31T18:32:38.234Z,100112.44
2022-12-31T18:35:32.869Z,100122.88
2022-12-31T18:38:00.715Z,100120.91
2022-12-31T18:40:30.416Z,100125.75
2022-12-31T18:43:04.698Z,100126.63
2022-12-31T18:45:35.763Z,100135.34
2022-12-31T18:48:04.084Z,100129.41
2022-12-31T18:50:34.863Z,100126.09
2022-12-31T18:53:03.803Z,100133.22
2022-12-31T18:55:40.269Z,100133.75
2022-12-31T18:58:08.763Z,100137.41
2022-12-31T19:00:38.157Z,100132.84
2022-12-31T19:03:06.709Z,100130.72
2022-12-31T19:05:38.120Z,100128.34
2022-12-31T19:08:06.686Z,100124.50
2022-12-31T19:10:36.390Z,100114.88
2022-12-31T19:13:05.021Z,100115.78
2022-12-31T19:15:36.450Z,100128.09
2022-12-31T19:18:04.712Z,100126.19
2022-12-31T19:20:32.968Z,100128.16
2022-12-31T19:23:01.141Z,100136.03
2022-12-31T19:25:33.843Z,100107.34
2022-12-31T19:28:04.365Z,100128.25
2022-12-31T19:30:34.451Z,100139.88
2022-12-31T19:33:02.600Z,100144.31
2022-12-31T19:35:30.716Z,100143.38
2022-12-31T19:37:59.941Z,100146.91
2022-12-31T19:40:30.424Z,100137.72
2022-12-31T19:42:59.327Z,100142.47
2022-12-31T19:45:32.112Z,100131.91
2022-12-31T19:48:00.357Z,100142.78
2022-12-31T19:50:29.621Z,100133.28
2022-12-31T19:52:59.870Z,100138.94
2022-12-31T19:55:28.177Z,100144.22
2022-12-31T19:57:56.606Z,100150.50
2022-12-31T20:00:24.779Z,100148.81
2022-12-31T20:02:54.702Z,100157.13
2022-12-31T20:05:23.035Z,100152.63
2022-12-31T20:07:51.497Z,100148.97
2022-12-31T20:10:20.016Z,100147.81
2022-12-31T20:12:48.153Z,100151.09
2022-12-31T20:15:16.507Z,100159.88
2022-12-31T20:17:44.548Z,100160.03
2022-12-31T20:20:14.383Z,100165.06
2022-12-31T20:22:42.620Z,100163.63
2022-12-31T20:25:11.223Z,100173.25
2022-12-31T20:27:39.767Z,100161.47
2022-12-31T20:30:09.747Z,100154.22
2022-12-31T20:32:40.747Z,100152.13
2022-12-31T20:35:09.255Z,100149.97
2022-12-31T20:37:39.585Z,100149.69
2022-12-31T20:40:09.091Z,100123.16
2022-12-31T20:42:40.059Z,100141.38
2022-12-31T20:45:10.082Z,100135.25
2022-12-31T20:47:38.242Z,100143.06
2022-12-31T20:50:11.863Z,100144.75
2022-12-31T20:52:43.554Z,100139.25
2022-12-31T20:55:13.858Z,100142.66
2022-12-31T20:57:42.097Z,100144.63
2022-12-31T21:00:12.389Z,100146.13
2022-12-31T21:02:42.735Z,100138.94
2022-12-31T21:05:12.057Z,100132.38
2022-12-31T21:07:41.862Z,100134.91
2022-12-31T21:10:10.481Z,100139.78
2022-12-31T21:12:45.067Z,100129.19
2022-12-31T21:15:13.892Z,100128.56
2022-12-31T21:17:42.063Z,100137.03
2022-12-31T21:20:11.057Z,100130.03
2022-12-31T21:22:39.543Z,100121.75
2022-12-31T21:25:11.259Z,100135.91
2022-12-31T21:27:39.371Z,100137.19
2022-12-31T21:30:24.150Z,100134.88
2022-12-31T21:32:52.558Z,100134.34
2022-12-31T21:38:10.217Z,100140.22
2022-12-31T21:40:39.910Z,100142.53
2022-12-31T21:43:08.237Z,100147.03
2022-12-31T21:45:36.279Z,100149.97
2022-12-31T21:48:25.061Z,100155.44
2022-12-31T21:50:55.114Z,100153.59
2022-12-31T21:53:30.475Z,100171.47
2022-12-31T21:56:08.661Z,100191.47
2022-12-31T21:58:37.265Z,100174.31
2022-12-31T22:01:23.804Z,100180.69
2022-12-31T22:03:52.435Z,100178.03
2022-12-31T22:06:23.100Z,100187.03
2022-12-31T22:08:52.939Z,100189.97
2022-12-31T22:11:23.592Z,100191.38
2022-12-31T22:13:52.597Z,100183.38
2022-12-31T22:16:23.469Z,100202.59
2022-12-31T22:18:51.806Z,100194.88
2022-12-31T22:21:22.377Z,100185.03
2022-12-31T22:23:52.627Z,100185.63
2022-12-31T22:26:24.784Z,100173.28
2022-12-31T22:28:59.798Z,100186.16
2022-12-31T22:31:31.571Z,100175.81
2022-12-31T22:34:00.667Z,100178.16
2022-12-31T22:36:29.288Z,100179.16
2022-12-31T22:38:59.995Z,100176.34
2022-12-31T22:41:33.111Z,100182.25
2022-12-31T22:44:04.807Z,100171.47
2022-12-31T22:46:37.046Z,100155.75
2022-12-31T22:49:05.756Z,100156.03
2022-12-31T22:51:57.397Z,100148.03
2022-12-31T22:54:23.079Z,100150.13
2022-12-31T22:56:53.143Z,100150.97
2022-12-31T22:59:21.222Z,100134.53
2022-12-31T23:01:49.462Z,100147.53
2022-12-31T23:04:17.567Z,100163.34
2022-12-31T23:06:45.699Z,100156.31
2022-12-31T23:09:36.083Z,100166.22
2022-12-31T23:12:09.634Z,100170.38
2022-12-31T23:14:55.466Z,100178.00
2022-12-31T23:17:45.795Z,100186.06
2022-12-31T23:20:35.039Z,100180.50
2022-12-31T23:23:10.607Z,100174.50
2022-12-31T23:25:41.569Z,100182.78
2022-12-31T23:28:13.681Z,100193.38
2022-12-31T23:30:43.028Z,100195.34
2022-12-31T23:33:15.996Z,100179.13
2022-12-31T23:35:44.682Z,100198.38
2022-12-31T23:38:14.002Z,100192.06
2022-12-31T23:40:42.429Z,100180.97
2022-12-31T23:43:20.922Z,100188.13
2022-12-31T23:45:50.440Z,100192.91
2022-12-31T23:48:18.876Z,100184.06
2022-12-31T23:50:53.018Z,100199.09
2022-12-31T23:53:22.963Z,100183.00
2022-12-31T23:55:51.467Z,100193.25
2022-12-31T23:58:22.391Z,100192.97
